createdAt,value
2023-09-09T00:01:11.262Z,99854.98
2023-09-09T00:03:43.762Z,99846.06
2023-09-09T00:06:15.698Z,99853.15
2023-09-09T00:08:47.563Z,99848.42
2023-09-09T00:11:18.919Z,99846.33
2023-09-09T00:13:50.249Z,99845.86
2023-09-09T00:16:21.890Z,99843.39
2023-09-09T00:18:54.228Z,99846.05
2023-09-09T00:21:25.678Z,99845.16
2023-09-09T00:23:57.066Z,99839.77
2023-09-09T00:26:29.827Z,99838.65
2023-09-09T00:29:01.410Z,99840.28
2023-09-09T00:31:32.962Z,99838.98
2023-09-09T00:34:04.321Z,99842.61
2023-09-09T00:36:35.646Z,99839.98
2023-09-09T00:39:07.946Z,99836.29
2023-09-09T00:41:39.400Z,99832.70
2023-09-09T00:44:10.830Z,99833.45
2023-09-09T00:46:42.403Z,99832.05
2023-09-09T00:49:13.881Z,99830.48
2023-09-09T00:51:46.187Z,99832.08
2023-09-09T00:54:17.821Z,99829.08
2023-09-09T00:56:51.503Z,99829.30
2023-09-09T00:59:22.964Z,99828.77
2023-09-09T01:01:54.556Z,99830.23
2023-09-09T01:04:26.606Z,99831.40
2023-09-09T01:06:59.401Z,99830.34
2023-09-09T01:09:31.379Z,99829.00
2023-09-09T01:12:04.265Z,99832.84
2023-09-09T01:14:35.747Z,99828.08
2023-09-09T01:17:07.576Z,99820.19
2023-09-09T01:19:39.506Z,99824.86
2023-09-09T01:22:13.005Z,99825.56
2023-09-09T01:24:46.242Z,99825.20
2023-09-09T01:27:17.596Z,99834.20
2023-09-09T01:29:48.952Z,99830.55
2023-09-09T01:32:20.370Z,99828.94
2023-09-09T01:34:51.819Z,99829.00
2023-09-09T01:37:23.681Z,99835.09
2023-09-09T01:39:55.073Z,99834.92
2023-09-09T01:42:26.536Z,99834.63
2023-09-09T01:44:57.968Z,99836.64
2023-09-09T01:47:29.312Z,99836.98
2023-09-09T01:50:00.670Z,99836.38
2023-09-09T01:52:32.141Z,99838.83
2023-09-09T01:55:03.760Z,99834.93
2023-09-09T01:57:35.159Z,99836.44
2023-09-09T02:00:11.355Z,99833.98
2023-09-09T02:02:42.666Z,99834.19
2023-09-09T02:05:14.381Z,99832.45
2023-09-09T02:07:45.674Z,99828.75
2023-09-09T02:10:17.151Z,99829.02
2023-09-09T02:12:48.484Z,99829.60
2023-09-09T02:15:20.255Z,99828.86
2023-09-09T02:17:51.624Z,99828.65
2023-09-09T02:20:22.941Z,99829.21
2023-09-09T02:22:54.198Z,99826.46
2023-09-09T02:25:25.568Z,99820.73
2023-09-09T02:27:56.923Z,99822.75
2023-09-09T02:30:28.397Z,99824.86
2023-09-09T02:33:00.417Z,99824.62
2023-09-09T02:35:32.012Z,99824.36
2023-09-09T02:38:03.450Z,99822.64
2023-09-09T02:40:34.719Z,99826.90
2023-09-09T02:43:06.503Z,99824.82
2023-09-09T02:45:37.780Z,99823.69
2023-09-09T02:48:09.461Z,99827.21
2023-09-09T02:50:40.958Z,99819.04
2023-09-09T02:53:12.284Z,99822.77
2023-09-09T02:55:43.696Z,99827.70
2023-09-09T02:58:15.444Z,99823.77
2023-09-09T03:00:46.982Z,99824.42
2023-09-09T03:03:18.614Z,99823.57
2023-09-09T03:05:50.468Z,99824.67
2023-09-09T03:08:21.773Z,99828.33
2023-09-09T03:10:54.124Z,99827.18
2023-09-09T03:13:25.412Z,99821.91
2023-09-09T03:15:56.779Z,99823.75
2023-09-09T03:18:28.304Z,99822.96
2023-09-09T03:20:59.746Z,99822.26
2023-09-09T03:23:31.212Z,99821.94
2023-09-09T03:26:02.581Z,99823.59
2023-09-09T03:28:33.949Z,99824.98
2023-09-09T03:31:05.321Z,99824.45
2023-09-09T03:33:36.846Z,99829.02
2023-09-09T03:36:09.434Z,99829.94
2023-09-09T03:38:41.416Z,99831.81
2023-09-09T03:41:12.728Z,99832.77
2023-09-09T03:43:44.393Z,99831.80
2023-09-09T03:46:16.322Z,99829.23
2023-09-09T03:48:47.712Z,99828.03
2023-09-09T03:51:20.718Z,99829.20
2023-09-09T03:53:52.060Z,99830.31
2023-09-09T03:56:23.482Z,99832.52
2023-09-09T03:58:54.797Z,99831.67
2023-09-09T04:01:26.268Z,99832.44
2023-09-09T04:03:57.910Z,99832.27
2023-09-09T04:06:29.923Z,99830.13
2023-09-09T04:09:01.466Z,99833.73
2023-09-09T04:11:33.233Z,99837.15
2023-09-09T04:14:04.565Z,99842.41
2023-09-09T04:16:36.097Z,99842.57
2023-09-09T04:19:07.717Z,99839.80
2023-09-09T04:21:39.092Z,99835.80
2023-09-09T04:24:10.882Z,99839.50
2023-09-09T04:26:42.340Z,99838.31
2023-09-09T04:29:13.795Z,99837.20
2023-09-09T04:31:47.895Z,99832.92
2023-09-09T04:34:19.288Z,99832.82
2023-09-09T04:36:50.650Z,99831.98
2023-09-09T04:39:22.089Z,99828.55
2023-09-09T04:41:53.533Z,99831.73
2023-09-09T04:44:25.206Z,99832.22
2023-09-09T04:46:56.485Z,99832.52
2023-09-09T04:49:28.501Z,99837.27
2023-09-09T04:51:59.889Z,99838.60
2023-09-09T04:54:31.284Z,99839.40
2023-09-09T04:57:03.788Z,99846.31
2023-09-09T04:59:35.610Z,99844.71
2023-09-09T05:02:07.387Z,99847.13
2023-09-09T05:04:38.755Z,99847.73
2023-09-09T05:07:11.166Z,99847.69
2023-09-09T05:09:42.569Z,99845.06
2023-09-09T05:12:13.949Z,99849.14
2023-09-09T05:14:45.443Z,99849.77
2023-09-09T05:17:16.719Z,99852.22
2023-09-09T05:19:47.999Z,99852.81
2023-09-09T05:22:19.395Z,99856.74
2023-09-09T05:24:50.806Z,99856.72
2023-09-09T05:27:22.131Z,99853.28
2023-09-09T05:29:53.425Z,99855.67
2023-09-09T05:32:24.799Z,99856.17
2023-09-09T05:34:56.184Z,99860.19
2023-09-09T05:37:28.567Z,99861.73
2023-09-09T05:40:04.190Z,99860.42
2023-09-09T05:42:36.075Z,99858.11
2023-09-09T05:45:10.351Z,99862.95
2023-09-09T05:47:42.404Z,99864.62
2023-09-09T05:50:14.258Z,99864.11
2023-09-09T05:52:45.660Z,99863.84
2023-09-09T05:55:17.352Z,99864.33
2023-09-09T05:57:48.745Z,99863.60
2023-09-09T06:00:21.228Z,99860.02
2023-09-09T06:02:52.696Z,99861.77
2023-09-09T06:05:24.871Z,99857.77
2023-09-09T06:07:58.330Z,99854.99
2023-09-09T06:10:29.765Z,99856.21
2023-09-09T06:13:01.245Z,99860.73
2023-09-09T06:15:32.738Z,99859.35
2023-09-09T06:18:04.283Z,99864.02
2023-09-09T06:20:35.603Z,99865.03
2023-09-09T06:23:06.895Z,99866.09
2023-09-09T06:25:38.388Z,99867.98
2023-09-09T06:28:09.890Z,99870.05
2023-09-09T06:30:45.350Z,99874.04
2023-09-09T06:33:16.672Z,99874.23
2023-09-09T06:35:55.585Z,99876.04
2023-09-09T06:38:27.086Z,99876.57
2023-09-09T06:40:58.455Z,99876.09
2023-09-09T06:43:29.847Z,99878.39
2023-09-09T06:46:01.925Z,99878.07
2023-09-09T06:48:33.430Z,99885.27
2023-09-09T06:51:05.091Z,99886.49
2023-09-09T06:53:36.873Z,99884.78
2023-09-09T06:56:09.321Z,99886.90
2023-09-09T06:58:40.673Z,99889.34
2023-09-09T07:01:13.060Z,99888.04
2023-09-09T07:03:44.765Z,99891.70
2023-09-09T07:06:16.232Z,99890.47
2023-09-09T07:08:48.750Z,99891.29
2023-09-09T07:11:18.785Z,99894.71
2023-09-09T07:13:50.167Z,99897.81
2023-09-09T07:16:23.046Z,99896.61
2023-09-09T07:18:54.394Z,99891.14
2023-09-09T07:21:25.838Z,99893.11
2023-09-09T07:23:57.154Z,99893.91
2023-09-09T07:26:28.931Z,99891.92
2023-09-09T07:29:00.350Z,99897.23
2023-09-09T07:31:31.951Z,99896.69
2023-09-09T07:34:03.380Z,99893.90
2023-09-09T07:36:34.804Z,99891.70
2023-09-09T07:39:07.491Z,99896.20
2023-09-09T07:41:38.863Z,99898.91
2023-09-09T07:44:10.745Z,99899.51
2023-09-09T07:46:43.065Z,99894.59
2023-09-09T07:49:14.929Z,99893.39
2023-09-09T07:51:47.503Z,99894.89
2023-09-09T07:54:18.829Z,99890.90
2023-09-09T07:56:50.218Z,99894.05
2023-09-09T07:59:21.538Z,99890.66
2023-09-09T08:01:52.967Z,99888.19
2023-09-09T08:04:24.509Z,99887.77
2023-09-09T08:06:56.059Z,99887.95
2023-09-09T08:09:27.645Z,99892.87
2023-09-09T08:11:58.935Z,99889.36
2023-09-09T08:14:30.434Z,99890.20
2023-09-09T08:17:01.864Z,99889.23
2023-09-09T08:19:33.393Z,99892.33
2023-09-09T08:22:04.878Z,99895.46
2023-09-09T08:24:36.220Z,99892.67
2023-09-09T08:27:08.378Z,99889.98
2023-09-09T08:29:39.728Z,99889.18
2023-09-09T08:32:11.436Z,99887.50
2023-09-09T08:34:43.173Z,99889.27
2023-09-09T08:37:16.421Z,99885.50
2023-09-09T08:39:48.278Z,99891.48
2023-09-09T08:42:32.624Z,99895.14
2023-09-09T08:45:14.654Z,99889.55
2023-09-09T08:47:49.899Z,99884.47
2023-09-09T08:50:22.788Z,99881.87
2023-09-09T08:52:56.816Z,99879.73
2023-09-09T08:55:28.961Z,99879.25
2023-09-09T08:58:00.756Z,99877.09
2023-09-09T09:00:35.843Z,99874.99
2023-09-09T09:03:09.057Z,99877.50
2023-09-09T09:05:43.175Z,99880.43
2023-09-09T09:08:14.762Z,99885.96
2023-09-09T09:10:48.447Z,99889.08
2023-09-09T09:13:19.935Z,99889.94
2023-09-09T09:15:51.312Z,99890.38
2023-09-09T09:18:23.007Z,99888.77
2023-09-09T09:20:54.634Z,99888.51
2023-09-09T09:23:25.986Z,99887.02
2023-09-09T09:25:57.262Z,99884.44
2023-09-09T09:28:31.166Z,99885.81
2023-09-09T09:31:02.438Z,99881.42
2023-09-09T09:33:35.085Z,99879.89
2023-09-09T09:36:07.090Z,99877.11
2023-09-09T09:38:38.691Z,99872.88
2023-09-09T09:41:12.336Z,99871.13
2023-09-09T09:43:43.881Z,99865.29
2023-09-09T09:46:19.268Z,99867.80
2023-09-09T09:48:51.097Z,99862.05
2023-09-09T09:51:22.468Z,99870.40
2023-09-09T09:53:56.896Z,99865.43
2023-09-09T09:56:28.331Z,99867.63
2023-09-09T09:58:59.753Z,99867.31
2023-09-09T10:01:31.836Z,99858.71
2023-09-09T10:04:07.775Z,99854.67
2023-09-09T10:06:42.321Z,99854.14
2023-09-09T10:09:19.273Z,99856.42
2023-09-09T10:12:04.448Z,99853.69
2023-09-09T10:14:38.469Z,99852.56
2023-09-09T10:17:10.710Z,99854.61
2023-09-09T10:19:43.527Z,99851.60
2023-09-09T10:22:15.486Z,99848.34
2023-09-09T10:24:48.682Z,99852.16
2023-09-09T10:27:21.560Z,99848.33
2023-09-09T10:29:53.428Z,99849.43
2023-09-09T10:32:27.540Z,99849.33
2023-09-09T10:35:00.771Z,99847.41
2023-09-09T10:37:34.740Z,99850.48
2023-09-09T10:40:08.906Z,99844.65
2023-09-09T10:42:42.940Z,99845.98
2023-09-09T10:45:29.426Z,99841.47
2023-09-09T10:48:02.876Z,99842.85
2023-09-09T10:50:46.315Z,99842.20
2023-09-09T10:53:21.023Z,99841.95
2023-09-09T10:55:56.331Z,99837.45
2023-09-09T10:58:36.152Z,99836.23
2023-09-09T11:01:09.276Z,99831.34
2023-09-09T11:03:50.189Z,99835.52
2023-09-09T11:06:26.598Z,99837.66
2023-09-09T11:09:00.179Z,99835.60
2023-09-09T11:11:36.275Z,99833.30
2023-09-09T11:14:09.389Z,99835.44
2023-09-09T11:16:42.267Z,99834.73
2023-09-09T11:19:15.066Z,99835.24
2023-09-09T11:21:48.079Z,99835.33
2023-09-09T11:24:19.947Z,99831.34
2023-09-09T11:26:52.660Z,99835.31
2023-09-09T11:29:36.125Z,99838.36
2023-09-09T11:32:11.625Z,99837.45
2023-09-09T11:34:43.206Z,99833.33
2023-09-09T11:37:14.630Z,99831.13
2023-09-09T11:39:46.404Z,99831.63
2023-09-09T11:42:18.747Z,99829.41
2023-09-09T11:44:50.275Z,99828.36
2023-09-09T11:47:22.289Z,99828.13
2023-09-09T11:49:53.621Z,99829.30
2023-09-09T11:52:25.917Z,99826.38
2023-09-09T11:54:56.265Z,99824.30
2023-09-09T11:57:27.768Z,99819.83
2023-09-09T12:00:01.985Z,99818.07
2023-09-09T12:02:33.853Z,99821.50
2023-09-09T12:05:06.596Z,99820.22
2023-09-09T12:07:40.236Z,99818.06
2023-09-09T12:10:15.949Z,99817.33
2023-09-09T12:12:49.052Z,99822.83
2023-09-09T12:15:21.434Z,99816.79
2023-09-09T12:17:53.367Z,99813.15
2023-09-09T12:20:25.268Z,99817.17
2023-09-09T12:22:57.130Z,99809.05
2023-09-09T12:25:36.591Z,99808.29
2023-09-09T12:28:19.729Z,99813.36
2023-09-09T12:30:53.914Z,99804.95
2023-09-09T12:33:26.109Z,99805.25
2023-09-09T12:35:56.321Z,99809.28
2023-09-09T12:38:29.458Z,99807.95
2023-09-09T12:41:08.599Z,99810.61
2023-09-09T12:43:40.737Z,99805.80
2023-09-09T12:46:19.297Z,99804.75
2023-09-09T12:48:56.727Z,99803.80
2023-09-09T12:51:30.821Z,99810.37
2023-09-09T12:54:02.750Z,99811.20
2023-09-09T12:56:34.523Z,99809.45
2023-09-09T12:59:07.348Z,99808.20
2023-09-09T13:01:39.910Z,99800.40
2023-09-09T13:04:11.807Z,99802.16
2023-09-09T13:06:43.590Z,99807.11
2023-09-09T13:09:15.286Z,99803.95
2023-09-09T13:11:47.004Z,99795.56
2023-09-09T13:14:25.316Z,99804.86
2023-09-09T13:16:58.664Z,99795.50
2023-09-09T13:19:32.384Z,99794.31
2023-09-09T13:22:07.493Z,99794.09
2023-09-09T13:24:39.428Z,99792.53
2023-09-09T13:27:11.266Z,99791.21
2023-09-09T13:29:43.270Z,99792.64
2023-09-09T13:32:15.050Z,99789.91
2023-09-09T13:34:47.013Z,99784.61
2023-09-09T13:37:18.983Z,99788.61
2023-09-09T13:39:50.649Z,99786.14
2023-09-09T13:42:23.402Z,99782.84
2023-09-09T13:47:28.623Z,99781.73
2023-09-09T13:50:05.712Z,99782.00
2023-09-09T13:52:37.536Z,99784.48
2023-09-09T13:55:10.257Z,99783.43
2023-09-09T13:57:41.517Z,99779.02
2023-09-09T14:00:14.705Z,99779.73
2023-09-09T14:02:46.100Z,99784.64
2023-09-09T14:05:17.709Z,99780.14
2023-09-09T14:07:48.999Z,99777.38
2023-09-09T14:10:20.712Z,99777.25
2023-09-09T14:12:52.021Z,99773.48
2023-09-09T14:15:23.530Z,99769.80
2023-09-09T14:17:55.025Z,99768.48
2023-09-09T14:20:27.394Z,99763.74
2023-09-09T14:22:57.218Z,99758.70
2023-09-09T14:25:28.762Z,99757.23
2023-09-09T14:27:59.998Z,99758.92
2023-09-09T14:30:31.387Z,99752.95
2023-09-09T14:33:03.097Z,99748.42
2023-09-09T14:35:34.577Z,99747.67
2023-09-09T14:38:06.268Z,99743.83
2023-09-09T14:40:37.584Z,99743.55
2023-09-09T14:43:08.874Z,99741.88
2023-09-09T14:45:40.349Z,99739.00
2023-09-09T14:48:15.428Z,99741.98
2023-09-09T14:50:47.080Z,99741.80
2023-09-09T14:53:18.669Z,99739.35
2023-09-09T14:55:50.277Z,99742.41
2023-09-09T14:58:21.827Z,99743.19
2023-09-09T15:00:53.201Z,99744.89
2023-09-09T15:03:24.764Z,99744.89
2023-09-09T15:05:57.159Z,99743.67
2023-09-09T15:08:28.541Z,99740.21
2023-09-09T15:11:00.052Z,99739.09
2023-09-09T15:13:31.603Z,99737.10
2023-09-09T15:16:07.793Z,99735.21
2023-09-09T15:18:39.436Z,99737.58
2023-09-09T15:21:11.148Z,99737.00
2023-09-09T15:23:42.485Z,99735.00
2023-09-09T15:26:13.889Z,99737.16
2023-09-09T15:28:45.265Z,99735.84
2023-09-09T15:31:18.338Z,99737.48
2023-09-09T15:33:49.915Z,99736.98
2023-09-09T15:36:21.525Z,99737.13
2023-09-09T15:38:52.808Z,99735.00
2023-09-09T15:41:25.102Z,99733.95
2023-09-09T15:43:56.454Z,99735.71
2023-09-09T15:46:28.055Z,99732.13
2023-09-09T15:48:59.490Z,99732.95
2023-09-09T15:51:30.993Z,99729.16
2023-09-09T15:54:03.061Z,99730.99
2023-09-09T15:56:34.454Z,99730.45
2023-09-09T15:59:06.134Z,99734.16
2023-09-09T16:01:37.518Z,99727.66
2023-09-09T16:04:09.283Z,99728.09
2023-09-09T16:06:40.870Z,99727.32
2023-09-09T16:09:12.200Z,99726.58
2023-09-09T16:11:43.577Z,99730.33
2023-09-09T16:14:15.759Z,99736.06
2023-09-09T16:16:47.250Z,99737.08
2023-09-09T16:19:18.737Z,99739.21
2023-09-09T16:21:50.034Z,99742.35
2023-09-09T16:24:22.773Z,99740.43
2023-09-09T16:26:54.371Z,99738.55
2023-09-09T16:29:25.649Z,99737.48
2023-09-09T16:31:57.275Z,99740.61
2023-09-09T16:34:30.808Z,99740.86
2023-09-09T16:37:02.127Z,99741.41
2023-09-09T16:39:34.033Z,99741.20
2023-09-09T16:42:07.132Z,99742.80
2023-09-09T16:44:38.442Z,99744.52
2023-09-09T16:47:10.003Z,99741.67
2023-09-09T16:49:41.478Z,99745.03
2023-09-09T16:52:13.049Z,99746.95
2023-09-09T16:54:44.411Z,99749.86
2023-09-09T16:57:15.755Z,99749.08
2023-09-09T16:59:47.077Z,99752.00
2023-09-09T17:02:18.502Z,99756.50
2023-09-09T17:04:50.020Z,99758.10
2023-09-09T17:07:21.535Z,99756.12
2023-09-09T17:09:53.184Z,99758.95
2023-09-09T17:12:24.764Z,99763.39
2023-09-09T17:14:56.165Z,99763.27
2023-09-09T17:17:27.571Z,99762.44
2023-09-09T17:19:59.170Z,99764.77
2023-09-09T17:22:30.636Z,99763.89
2023-09-09T17:25:01.995Z,99762.44
2023-09-09T17:27:33.329Z,99759.14
2023-09-09T17:30:05.235Z,99761.02
2023-09-09T17:32:36.538Z,99768.57
2023-09-09T17:35:09.633Z,99767.96
2023-09-09T17:37:41.190Z,99774.19
2023-09-09T17:40:13.586Z,99771.05
2023-09-09T17:42:43.410Z,99772.73
2023-09-09T17:45:15.192Z,99775.14
2023-09-09T17:47:46.606Z,99774.71
2023-09-09T17:50:17.959Z,99781.01
2023-09-09T17:52:49.494Z,99786.33
2023-09-09T17:55:21.338Z,99788.58
2023-09-09T17:57:52.740Z,99788.29
2023-09-09T18:00:24.387Z,99792.55
2023-09-09T18:02:56.221Z,99796.20
2023-09-09T18:05:27.780Z,99798.64
2023-09-09T18:07:59.206Z,99802.20
2023-09-09T18:10:30.612Z,99803.11
2023-09-09T18:13:01.969Z,99806.23
2023-09-09T18:15:33.333Z,99807.89
2023-09-09T18:18:04.911Z,99807.05
2023-09-09T18:20:36.341Z,99807.06
2023-09-09T18:23:07.776Z,99816.18
2023-09-09T18:25:39.134Z,99811.52
2023-09-09T18:28:10.490Z,99814.29
2023-09-09T18:30:46.156Z,99813.02
2023-09-09T18:33:17.442Z,99812.88
2023-09-09T18:35:49.032Z,99816.03
2023-09-09T18:38:20.353Z,99821.06
2023-09-09T18:40:54.144Z,99822.48
2023-09-09T18:43:25.609Z,99823.15
2023-09-09T18:45:59.130Z,99823.67
2023-09-09T18:48:30.515Z,99827.77
2023-09-09T18:51:02.416Z,99829.13
2023-09-09T18:53:34.018Z,99836.02
2023-09-09T18:56:05.753Z,99835.30
2023-09-09T18:58:37.631Z,99838.96
2023-09-09T19:01:09.230Z,99841.65
2023-09-09T19:03:40.939Z,99846.44
2023-09-09T19:06:12.629Z,99843.98
2023-09-09T19:08:44.052Z,99846.17
2023-09-09T19:11:17.151Z,99850.80
2023-09-09T19:13:48.634Z,99856.42
2023-09-09T19:16:20.042Z,99859.12
2023-09-09T19:18:52.559Z,99855.30
2023-09-09T19:21:25.683Z,99858.45
2023-09-09T19:23:57.426Z,99855.45
2023-09-09T19:26:29.075Z,99860.45
2023-09-09T19:29:00.513Z,99861.04
2023-09-09T19:31:32.244Z,99860.09
2023-09-09T19:34:03.653Z,99859.03
2023-09-09T19:36:35.031Z,99860.95
2023-09-09T19:39:06.583Z,99859.86
2023-09-09T19:41:38.917Z,99859.81
2023-09-09T19:44:10.363Z,99859.92
2023-09-09T19:46:41.838Z,99858.46
2023-09-09T19:49:13.209Z,99859.02
2023-09-09T19:51:44.739Z,99863.39
2023-09-09T19:54:16.204Z,99862.66
2023-09-09T19:56:49.685Z,99864.44
2023-09-09T19:59:22.796Z,99866.78
2023-09-09T20:01:54.345Z,99868.02
2023-09-09T20:04:26.327Z,99870.45
2023-09-09T20:06:57.765Z,99867.57
2023-09-09T20:09:29.092Z,99868.84
2023-09-09T20:12:01.314Z,99870.28
2023-09-09T20:14:32.752Z,99873.89
2023-09-09T20:17:04.418Z,99878.95
2023-09-09T20:19:36.698Z,99878.84
2023-09-09T20:22:08.240Z,99878.89
2023-09-09T20:24:39.545Z,99881.98
2023-09-09T20:27:10.922Z,99879.95
2023-09-09T20:29:42.242Z,99881.91
2023-09-09T20:32:13.611Z,99876.34
2023-09-09T20:34:44.960Z,99882.47
2023-09-09T20:37:16.328Z,99882.49
2023-09-09T20:39:47.915Z,99883.08
2023-09-09T20:42:19.270Z,99879.64
2023-09-09T20:44:50.585Z,99878.91
2023-09-09T20:47:22.003Z,99880.54
2023-09-09T20:49:53.465Z,99879.77
2023-09-09T20:52:25.094Z,99877.33
2023-09-09T20:54:56.755Z,99876.77
2023-09-09T20:57:28.080Z,99876.34
2023-09-09T20:59:59.405Z,99877.75
2023-09-09T21:02:30.728Z,99877.57
2023-09-09T21:05:02.451Z,99883.74
2023-09-09T21:07:33.938Z,99881.38
2023-09-09T21:10:06.576Z,99879.89
2023-09-09T21:12:37.872Z,99885.09
2023-09-09T21:15:11.121Z,99882.70
2023-09-09T21:17:42.640Z,99881.88
2023-09-09T21:20:15.500Z,99883.26
2023-09-09T21:22:47.593Z,99880.73
2023-09-09T21:25:29.883Z,99877.05
2023-09-09T21:28:04.262Z,99882.84
2023-09-09T21:30:37.954Z,99884.10
2023-09-09T21:33:09.633Z,99884.65
2023-09-09T21:35:41.094Z,99882.88
2023-09-09T21:38:12.416Z,99881.56
2023-09-09T21:40:43.707Z,99882.62
2023-09-09T21:43:17.136Z,99881.52
2023-09-09T21:45:48.555Z,99883.60
2023-09-09T21:48:19.939Z,99888.01
2023-09-09T21:50:51.377Z,99886.44
2023-09-09T21:53:24.853Z,99888.58
2023-09-09T21:55:56.283Z,99885.93
2023-09-09T21:58:27.827Z,99886.75
2023-09-09T22:00:59.279Z,99885.09
2023-09-09T22:03:30.795Z,99881.16
2023-09-09T22:06:02.222Z,99883.04
2023-09-09T22:08:33.810Z,99881.72
2023-09-09T22:11:07.434Z,99883.34
2023-09-09T22:13:40.635Z,99881.45
2023-09-09T22:16:12.637Z,99883.16
2023-09-09T22:18:43.910Z,99885.48
2023-09-09T22:21:15.192Z,99887.21
2023-09-09T22:23:46.558Z,99889.03
2023-09-09T22:26:28.830Z,99886.46
2023-09-09T22:29:00.856Z,99891.80
2023-09-09T22:31:32.516Z,99890.80
2023-09-09T22:34:03.969Z,99892.50
2023-09-09T22:36:35.404Z,99888.90
2023-09-09T22:39:06.795Z,99888.67
2023-09-09T22:41:38.102Z,99889.34
2023-09-09T22:44:10.294Z,99887.49
2023-09-09T22:46:41.661Z,99890.95
2023-09-09T22:49:14.171Z,99885.69
2023-09-09T22:51:45.340Z,99887.29
2023-09-09T22:54:16.804Z,99890.22
2023-09-09T22:56:48.042Z,99894.10
2023-09-09T22:59:19.323Z,99896.80
2023-09-09T23:01:50.822Z,99891.91
2023-09-09T23:04:22.279Z,99889.78
2023-09-09T23:06:53.587Z,99894.74
2023-09-09T23:09:24.833Z,99899.46
2023-09-09T23:11:56.235Z,99894.41
2023-09-09T23:14:27.660Z,99893.25
2023-09-09T23:16:59.117Z,99897.20
2023-09-09T23:19:30.490Z,99899.91
2023-09-09T23:22:01.833Z,99896.16
2023-09-09T23:24:33.129Z,99893.75
2023-09-09T23:27:04.726Z,99890.61
2023-09-09T23:29:36.130Z,99893.90
2023-09-09T23:32:08.652Z,99893.27
2023-09-09T23:34:41.409Z,99895.57
2023-09-09T23:37:13.317Z,99893.32
2023-09-09T23:39:44.558Z,99893.71
2023-09-09T23:42:15.836Z,99891.30
2023-09-09T23:44:47.288Z,99889.04
2023-09-09T23:47:18.547Z,99892.63
2023-09-09T23:49:50.360Z,99889.12
2023-09-09T23:52:21.618Z,99892.23
2023-09-09T23:54:53.041Z,99894.26
2023-09-09T23:57:24.425Z,99895.53
2023-09-09T23:59:56.078Z,99895.85
